Time;durP1;ratioP1;P1;durP2;ratioP2;P2;SDS_P1;SDS_P2;PMS_P1;PMS_P2;Temp;Humidity;BMP_temperature;BMP_pressure;BME280_temperature;BME280_humidity;BME280_pressure;Samples;Min_cycle;Max_cycle;Signal;HPM_P1;HPM_P2
2023/02/20 00:01:28;;;;;;;15.00;9.90;;;20.40;87.80;;;;;;5075230;28;20666;-58
2023/02/20 00:03:54;;;;;;;11.60;8.57;;;20.40;87.80;;;;;;5070207;28;20195;-58
2023/02/20 00:06:21;;;;;;;12.23;8.48;;;20.40;87.80;;;;;;5074788;28;20195;-57
2023/02/20 00:08:48;;;;;;;16.42;10.45;;;20.40;87.60;;;;;;5080572;28;20198;-56
2023/02/20 00:11:14;;;;;;;12.85;8.85;;;20.30;87.50;;;;;;5074971;28;20191;-59
2023/02/20 00:13:45;;;;;;;14.18;9.27;;;20.30;88.40;;;;;;5082802;28;20222;-63
2023/02/20 00:16:13;;;;;;;13.95;9.40;;;20.30;87.70;;;;;;5074667;28;20721;-58
2023/02/20 00:18:40;;;;;;;10.50;6.95;;;20.30;87.60;;;;;;5077018;28;20198;-59
2023/02/20 00:21:07;;;;;;;11.90;8.55;;;20.30;87.70;;;;;;5085350;28;20194;-58
2023/02/20 00:23:35;;;;;;;9.88;7.95;;;20.40;87.80;;;;;;5083324;28;20289;-58
2023/02/20 00:26:01;;;;;;;9.88;6.95;;;20.40;87.70;;;;;;5073624;28;20194;-62
2023/02/20 00:28:28;;;;;;;10.93;7.03;;;20.40;87.60;;;;;;5079684;28;20380;-55
2023/02/20 00:30:55;;;;;;;9.32;7.18;;;20.40;87.70;;;;;;5083712;28;20908;-56
2023/02/20 00:33:24;;;;;;;8.82;6.35;;;20.40;87.60;;;;;;5083948;28;20709;-56
2023/02/20 00:35:50;;;;;;;9.88;6.30;;;20.40;87.70;;;;;;5082561;28;20218;-55
2023/02/20 00:38:18;;;;;;;9.50;6.80;;;20.40;87.70;;;;;;5087341;28;20194;-61
2023/02/20 00:40:44;;;;;;;13.25;6.97;;;20.40;87.70;;;;;;5081768;28;20210;-61
2023/02/20 00:43:11;;;;;;;10.02;6.65;;;20.40;87.70;;;;;;5081231;28;20198;-57
2023/02/20 00:45:38;;;;;;;7.40;5.38;;;20.40;87.80;;;;;;5078901;28;20210;-54
2023/02/20 00:48:05;;;;;;;10.57;6.43;;;20.40;87.60;;;;;;5074646;28;20205;-59
2023/02/20 00:50:33;;;;;;;9.57;6.45;;;20.40;87.60;;;;;;5075264;28;20206;-57
2023/02/20 00:53:00;;;;;;;9.18;6.13;;;20.40;87.50;;;;;;5082821;28;20218;-53
2023/02/20 00:55:27;;;;;;;8.98;6.15;;;20.40;87.50;;;;;;5078354;28;20203;-56
2023/02/20 00:57:54;;;;;;;11.10;6.13;;;20.40;87.40;;;;;;5082485;28;20663;-55
2023/02/20 01:00:24;;;;;;;10.85;5.72;;;20.40;87.30;;;;;;5068646;28;20241;-61
2023/02/20 01:02:50;;;;;;;6.82;4.93;;;20.40;87.20;;;;;;5083593;28;20210;-60
2023/02/20 01:05:17;;;;;;;9.60;5.68;;;20.40;87.10;;;;;;5080063;28;20519;-56
2023/02/20 01:07:45;;;;;;;8.38;5.32;;;20.40;87.00;;;;;;5081173;28;20724;-55
2023/02/20 01:10:13;;;;;;;7.60;4.97;;;20.40;86.90;;;;;;5072684;28;20206;-56
2023/02/20 01:12:40;;;;;;;6.57;4.97;;;20.40;86.90;;;;;;5083882;28;20224;-56
2023/02/20 01:15:08;;;;;;;6.90;4.97;;;20.40;86.90;;;;;;5077208;28;20198;-62
2023/02/20 01:17:35;;;;;;;9.23;5.13;;;20.40;86.80;;;;;;5078989;28;20206;-59
2023/02/20 01:20:02;;;;;;;5.70;4.05;;;20.40;86.70;;;;;;5085407;28;20199;-60
2023/02/20 01:22:28;;;;;;;6.25;3.88;;;20.40;86.70;;;;;;5087126;28;20701;-56
2023/02/20 01:24:56;;;;;;;10.20;4.50;;;20.40;86.50;;;;;;5072158;28;20199;-60
2023/02/20 01:27:23;;;;;;;5.00;4.15;;;20.40;86.50;;;;;;5074716;28;20195;-58
2023/02/20 01:29:50;;;;;;;8.10;4.82;;;20.40;86.40;;;;;;5079888;28;20206;-62
2023/02/20 01:32:16;;;;;;;7.85;4.80;;;20.40;86.30;;;;;;5079629;28;20194;-55
2023/02/20 01:34:43;;;;;;;8.30;4.72;;;20.40;86.30;;;;;;5085250;28;20187;-60
2023/02/20 01:37:13;;;;;;;8.75;4.72;;;20.40;86.20;;;;;;5077814;28;20202;-59
2023/02/20 01:39:40;;;;;;;7.70;4.88;;;20.40;86.10;;;;;;5081370;28;20244;-54
2023/02/20 01:42:16;;;;;;;8.38;5.20;;;20.30;85.90;;;;;;5080955;28;20199;-54
2023/02/20 01:45:20;;;;;;;5.38;3.72;;;20.30;86.00;;;;;;5097741;27;20570;-55
2023/02/20 01:47:46;;;;;;;7.00;4.20;;;20.30;85.80;;;;;;5081488;28;20626;-57
2023/02/20 01:50:15;;;;;;;8.30;5.07;;;20.30;85.80;;;;;;5082586;28;20214;-59
2023/02/20 01:52:44;;;;;;;5.55;4.57;;;20.30;85.70;;;;;;5079742;28;20186;-57
2023/02/20 01:55:15;;;;;;;7.88;4.72;;;20.30;85.60;;;;;;5075658;28;20222;-61
2023/02/20 01:57:49;;;;;;;6.03;4.18;;;20.30;85.60;;;;;;5085845;28;20191;-59
2023/02/20 02:00:20;;;;;;;4.10;3.70;;;20.30;85.50;;;;;;5075425;28;20193;-60
2023/02/20 02:02:52;;;;;;;6.75;3.92;;;20.30;85.40;;;;;;5081721;28;20197;-56
2023/02/20 02:05:19;;;;;;;5.28;3.83;;;20.30;85.30;;;;;;5080075;28;20201;-54
2023/02/20 02:07:46;;;;;;;3.75;3.42;;;20.30;85.30;;;;;;5083484;28;20561;-56
2023/02/20 02:10:16;;;;;;;4.20;3.80;;;20.30;85.20;;;;;;5078652;28;20205;-58
2023/02/20 02:12:47;;;;;;;5.20;4.05;;;20.30;85.10;;;;;;5085046;28;20201;-55
2023/02/20 02:15:16;;;;;;;5.03;3.40;;;20.30;85.10;;;;;;5074739;28;20201;-57
2023/02/20 02:17:56;;;;;;;7.35;4.55;;;20.30;85.10;;;;;;5078879;28;20202;-56
2023/02/20 02:21:00;;;;;;;5.53;3.38;;;20.30;85.00;;;;;;5082661;28;20187;-60
2023/02/20 02:24:18;;;;;;;4.78;2.90;;;20.20;84.80;;;;;;5054632;28;20231;-55
2023/02/20 02:27:24;;;;;;;6.15;3.55;;;20.30;84.80;;;;;;4998511;28;20198;-59
2023/02/20 02:30:25;;;;;;;5.35;4.25;;;20.30;84.70;;;;;;4999647;28;20197;-54
2023/02/20 02:33:21;;;;;;;6.78;4.28;;;20.30;84.70;;;;;;5062374;28;20202;-54
2023/02/20 02:36:33;;;;;;;7.53;3.60;;;20.20;84.50;;;;;;5057915;28;20192;-52
2023/02/20 02:39:06;;;;;;;3.42;3.13;;;20.20;84.40;;;;;;5053689;28;20655;-53
2023/02/20 02:41:41;;;;;;;3.20;2.50;;;20.20;84.30;;;;;;5063648;28;20195;-57
2023/02/20 02:44:15;;;;;;;4.75;3.20;;;20.20;84.30;;;;;;5061500;28;20215;-53
2023/02/20 02:46:48;;;;;;;4.80;3.08;;;20.20;84.30;;;;;;5057272;28;20205;-57
2023/02/20 02:49:20;;;;;;;3.25;2.83;;;20.20;84.20;;;;;;5060882;28;20237;-53
2023/02/20 02:51:50;;;;;;;4.93;3.03;;;20.20;84.20;;;;;;5061190;28;20214;-59
2023/02/20 02:54:21;;;;;;;4.15;2.90;;;20.20;84.20;;;;;;5059435;28;20206;-53
2023/02/20 02:56:48;;;;;;;4.30;3.47;;;20.20;84.10;;;;;;5050014;28;20720;-57
2023/02/20 02:59:21;;;;;;;5.78;3.00;;;20.20;84.00;;;;;;5048132;28;20218;-60
2023/02/20 03:01:53;;;;;;;4.25;3.17;;;20.20;84.00;;;;;;5045835;28;20200;-59
2023/02/20 03:04:23;;;;;;;3.60;3.17;;;20.20;83.90;;;;;;5046455;28;20218;-62
2023/02/20 03:06:55;;;;;;;3.70;2.80;;;20.20;83.80;;;;;;5049557;28;20296;-54
2023/02/20 03:09:25;;;;;;;4.18;3.25;;;20.20;83.90;;;;;;5042875;28;20206;-60
2023/02/20 03:11:54;;;;;;;4.05;3.10;;;20.20;83.80;;;;;;5050196;28;21073;-57
2023/02/20 03:17:17;;;;;;;3.10;2.80;;;20.20;83.70;;;;;;5049868;28;20224;-59
2023/02/20 03:19:47;;;;;;;4.07;2.95;;;20.20;83.70;;;;;;5042016;28;20195;-54
2023/02/20 03:22:19;;;;;;;5.25;3.35;;;20.20;83.60;;;;;;5044664;28;20603;-56
2023/02/20 03:24:54;;;;;;;4.78;2.63;;;20.20;83.60;;;;;;5040160;28;20216;-59
2023/02/20 03:27:25;;;;;;;3.25;2.83;;;20.10;83.40;;;;;;5049828;28;20187;-56
2023/02/20 03:29:54;;;;;;;3.65;2.85;;;20.10;83.30;;;;;;5046090;28;20320;-53
2023/02/20 03:43:28;;;;;;;4.07;3.10;;;20.10;83.10;;;;;;5044195;28;20316;-61
2023/02/20 03:46:01;;;;;;;2.70;2.50;;;20.10;83.10;;;;;;5045441;28;20199;-63
2023/02/20 03:48:32;;;;;;;3.75;2.65;;;20.10;83.10;;;;;;5043497;28;20295;-55
2023/02/20 03:53:46;;;;;;;3.15;2.47;;;20.10;82.90;;;;;;5044467;28;20202;-56
2023/02/20 03:56:16;;;;;;;3.03;2.72;;;20.10;82.80;;;;;;5048150;28;20207;-58
2023/02/20 03:58:48;;;;;;;4.00;2.60;;;20.10;82.80;;;;;;5048416;28;20199;-63
2023/02/20 04:01:17;;;;;;;3.85;2.35;;;20.10;82.80;;;;;;5042520;28;20566;-54
2023/02/20 04:03:47;;;;;;;3.65;2.55;;;20.10;82.80;;;;;;5048705;28;20231;-58
2023/02/20 04:06:16;;;;;;;3.65;2.60;;;20.10;82.70;;;;;;5045453;28;20215;-56
2023/02/20 04:08:49;;;;;;;4.10;2.53;;;20.10;82.70;;;;;;5043744;28;20206;-64
2023/02/20 04:11:21;;;;;;;2.72;2.22;;;20.10;82.70;;;;;;5043734;28;20196;-57
2023/02/20 04:13:51;;;;;;;2.70;2.50;;;20.10;82.60;;;;;;5045017;28;20202;-56
2023/02/20 04:16:18;;;;;;;2.97;2.47;;;20.10;82.70;;;;;;5045026;28;20591;-55
2023/02/20 04:18:45;;;;;;;6.22;2.60;;;20.10;82.60;;;;;;5046503;28;20203;-64
2023/02/20 04:21:21;;;;;;;4.22;2.70;;;20.10;82.50;;;;;;5043788;28;20195;-56
2023/02/20 04:23:56;;;;;;;3.10;2.80;;;20.10;82.50;;;;;;5044828;28;20690;-61
2023/02/20 04:26:23;;;;;;;2.58;2.38;;;20.10;82.50;;;;;;5040991;28;20590;-60
2023/02/20 04:28:50;;;;;;;2.97;2.67;;;20.10;82.40;;;;;;5046029;28;20199;-56
2023/02/20 04:31:19;;;;;;;2.72;2.08;;;20.10;82.30;;;;;;5047126;28;20286;-56
2023/02/20 04:33:46;;;;;;;2.95;2.35;;;20.10;82.30;;;;;;5042850;28;20211;-57
2023/02/20 04:36:13;;;;;;;2.78;2.00;;;20.10;83.00;;;;;;5045362;28;20203;-55
2023/02/20 04:38:39;;;;;;;2.88;2.35;;;20.00;82.10;;;;;;5047563;28;20191;-56
2023/02/20 04:41:07;;;;;;;2.72;2.30;;;20.00;82.10;;;;;;5044892;28;20195;-56
2023/02/20 04:43:34;;;;;;;2.83;2.50;;;20.10;82.20;;;;;;5043856;28;20203;-54
2023/02/20 04:46:01;;;;;;;4.28;2.30;;;20.10;82.90;;;;;;5044734;28;20199;-59
2023/02/20 04:48:27;;;;;;;3.20;2.10;;;20.10;82.10;;;;;;5042135;28;20196;-55
2023/02/20 04:50:54;;;;;;;3.55;2.80;;;20.00;82.00;;;;;;5042561;28;20202;-53
2023/02/20 04:53:21;;;;;;;3.45;2.75;;;20.00;82.00;;;;;;5042052;28;20199;-59
2023/02/20 04:55:48;;;;;;;2.95;2.55;;;20.00;82.00;;;;;;5038434;28;20208;-59
2023/02/20 04:58:16;;;;;;;3.30;2.50;;;20.00;81.90;;;;;;5046500;28;20287;-56
2023/02/20 05:00:43;;;;;;;3.35;2.17;;;20.00;81.90;;;;;;5041020;28;20187;-56
2023/02/20 05:03:09;;;;;;;2.22;2.03;;;20.00;81.80;;;;;;5045960;28;20195;-55
2023/02/20 05:05:36;;;;;;;2.33;1.98;;;20.00;81.80;;;;;;5047536;28;20242;-54
2023/02/20 05:08:05;;;;;;;3.45;2.53;;;20.00;81.80;;;;;;5043517;28;20192;-64
2023/02/20 05:10:34;;;;;;;3.40;2.50;;;20.00;81.70;;;;;;5045097;28;20196;-57
2023/02/20 05:13:02;;;;;;;2.25;1.90;;;20.00;81.70;;;;;;5047405;28;20674;-64
2023/02/20 05:15:31;;;;;;;2.55;1.80;;;20.00;81.60;;;;;;5041922;28;20206;-61
2023/02/20 05:17:58;;;;;;;2.80;1.60;;;20.00;81.60;;;;;;5046504;28;20572;-59
2023/02/20 05:22:17;;;;;;;2.72;2.20;;;20.00;81.60;;;;;;5043629;28;20202;-54
2023/02/20 05:23:10;;;;;;;2.78;2.50;;;20.00;81.60;;;;;;5044860;28;20234;-58
2023/02/20 05:25:37;;;;;;;3.70;2.60;;;20.00;81.50;;;;;;5041438;28;20572;-57
2023/02/20 05:28:04;;;;;;;2.22;2.03;;;20.00;81.50;;;;;;5045761;28;20200;-59
2023/02/20 05:30:32;;;;;;;2.40;2.20;;;20.00;81.40;;;;;;5045899;28;20192;-56
2023/02/20 05:32:59;;;;;;;2.15;1.95;;;20.00;81.40;;;;;;5044710;28;20204;-57
2023/02/20 05:35:25;;;;;;;2.70;2.15;;;20.00;81.40;;;;;;5041316;28;20305;-60
2023/02/20 05:37:52;;;;;;;2.53;1.85;;;20.00;81.40;;;;;;5046587;28;20199;-57
2023/02/20 05:40:19;;;;;;;3.45;2.47;;;20.00;81.40;;;;;;5042500;28;20195;-59
2023/02/20 05:42:45;;;;;;;2.40;1.85;;;20.00;81.30;;;;;;5046231;28;20274;-63
2023/02/20 05:45:12;;;;;;;3.17;2.10;;;20.00;81.20;;;;;;5039858;28;20215;-55
2023/02/20 05:47:40;;;;;;;2.00;1.80;;;20.00;81.20;;;;;;5041896;28;20199;-57
2023/02/20 05:50:07;;;;;;;3.63;2.13;;;20.00;81.20;;;;;;5042273;28;20192;-59
2023/02/20 05:52:34;;;;;;;2.45;2.03;;;19.90;81.10;;;;;;5040158;28;20192;-59
2023/02/20 05:55:01;;;;;;;1.52;1.42;;;19.90;81.10;;;;;;5040763;28;20207;-56
2023/02/20 05:57:28;;;;;;;2.47;1.63;;;19.90;82.00;;;;;;5044554;28;20203;-54
2023/02/20 05:59:54;;;;;;;2.60;1.90;;;19.90;81.10;;;;;;5040755;28;20200;-54
2023/02/20 06:02:21;;;;;;;1.92;1.45;;;19.90;81.10;;;;;;5044980;28;20196;-56
2023/02/20 06:04:49;;;;;;;3.65;2.10;;;19.90;81.10;;;;;;5044821;28;20218;-60
2023/02/20 06:07:16;;;;;;;2.70;2.08;;;19.90;81.10;;;;;;5044213;28;20566;-59
2023/02/20 06:09:43;;;;;;;1.77;1.40;;;19.90;81.10;;;;;;5038073;28;20202;-57
2023/02/20 06:12:10;;;;;;;2.85;2.10;;;19.90;81.00;;;;;;5045315;28;20202;-57
2023/02/20 06:14:37;;;;;;;2.60;2.08;;;19.90;80.90;;;;;;5039733;28;20199;-62
2023/02/20 06:17:03;;;;;;;2.60;1.70;;;19.90;81.00;;;;;;5040819;28;20211;-54
2023/02/20 06:19:30;;;;;;;2.83;2.00;;;19.90;81.00;;;;;;5039390;28;20522;-61
2023/02/20 06:21:58;;;;;;;1.77;1.60;;;19.90;80.90;;;;;;5045548;28;20231;-58
2023/02/20 06:24:25;;;;;;;2.50;1.80;;;19.90;80.70;;;;;;5046860;28;20224;-59
2023/02/20 06:26:52;;;;;;;3.40;2.30;;;19.90;80.70;;;;;;5044995;28;20195;-55
2023/02/20 06:29:19;;;;;;;2.65;2.03;;;19.90;80.70;;;;;;5041641;28;20219;-55
2023/02/20 06:31:46;;;;;;;3.92;2.40;;;20.00;80.90;;;;;;5040469;28;20665;-58
2023/02/20 06:34:14;;;;;;;2.40;2.20;;;19.90;80.70;;;;;;5041364;28;20222;-56
2023/02/20 06:36:41;;;;;;;2.05;1.85;;;20.00;80.90;;;;;;5043977;28;20682;-59
2023/02/20 06:39:12;;;;;;;2.17;1.80;;;20.00;80.90;;;;;;5048605;28;20551;-58
2023/02/20 06:41:39;;;;;;;1.92;1.60;;;20.00;80.90;;;;;;5049647;28;20191;-55
2023/02/20 06:44:06;;;;;;;2.95;1.85;;;20.00;80.90;;;;;;5049134;28;20234;-59
2023/02/20 06:46:33;;;;;;;2.47;2.00;;;20.00;80.90;;;;;;5048570;28;20235;-63
2023/02/20 06:49:02;;;;;;;4.35;2.42;;;19.90;80.70;;;;;;5048140;28;20200;-57
2023/02/20 06:51:30;;;;;;;1.75;1.48;;;20.00;80.70;;;;;;5047948;28;20578;-59
2023/02/20 06:53:57;;;;;;;2.35;2.08;;;20.00;80.70;;;;;;5048573;28;20207;-55
2023/02/20 06:56:27;;;;;;;2.17;1.80;;;19.90;80.60;;;;;;5047773;28;20230;-60
2023/02/20 06:58:54;;;;;;;2.67;2.05;;;20.00;80.70;;;;;;5050885;28;20214;-56
2023/02/20 07:01:25;;;;;;;1.58;1.48;;;20.00;81.60;;;;;;5046814;28;20196;-57
2023/02/20 07:03:54;;;;;;;2.40;2.20;;;19.90;80.70;;;;;;5046635;28;20278;-62
2023/02/20 07:06:21;;;;;;;3.05;2.20;;;19.90;80.60;;;;;;5049411;28;20215;-60
2023/02/20 07:08:47;;;;;;;2.05;1.73;;;19.90;80.60;;;;;;5046753;28;20198;-60
2023/02/20 07:11:16;;;;;;;2.35;2.00;;;20.00;80.80;;;;;;5049040;28;20599;-61
2023/02/20 07:13:45;;;;;;;2.15;1.65;;;19.90;80.70;;;;;;5046815;28;20199;-55
2023/02/20 07:16:13;;;;;;;3.50;2.20;;;19.90;80.70;;;;;;5046166;28;20208;-56
2023/02/20 07:18:39;;;;;;;2.05;1.63;;;20.00;80.70;;;;;;5047694;28;20204;-56
2023/02/20 07:21:06;;;;;;;2.25;2.05;;;20.00;80.70;;;;;;5049649;28;20199;-55
2023/02/20 07:23:33;;;;;;;1.95;1.75;;;20.00;80.60;;;;;;5049911;28;20555;-56
2023/02/20 07:26:00;;;;;;;2.10;1.90;;;19.90;80.50;;;;;;5042887;28;20215;-53
2023/02/20 07:28:26;;;;;;;2.45;1.70;;;20.00;80.60;;;;;;5047358;28;20199;-57
2023/02/20 07:30:54;;;;;;;1.88;1.38;;;20.00;80.60;;;;;;5046501;28;20195;-56
2023/02/20 07:33:21;;;;;;;2.50;2.05;;;20.00;80.50;;;;;;5048875;28;20201;-52
2023/02/20 07:35:48;;;;;;;2.10;1.75;;;20.00;80.50;;;;;;5040465;28;20200;-59
2023/02/20 07:38:15;;;;;;;2.85;1.73;;;20.00;80.40;;;;;;5049521;28;20198;-60
2023/02/20 07:40:42;;;;;;;1.90;1.60;;;20.00;80.40;;;;;;5047408;28;20198;-56
2023/02/20 07:43:08;;;;;;;2.20;2.00;;;20.00;80.40;;;;;;5043442;28;20210;-56
2023/02/20 07:45:36;;;;;;;1.83;1.63;;;20.00;80.40;;;;;;5046601;28;20219;-55
2023/02/20 07:48:04;;;;;;;1.60;1.50;;;20.00;80.40;;;;;;5047437;28;20198;-59
2023/02/20 07:50:31;;;;;;;2.50;1.85;;;20.00;80.40;;;;;;5046137;28;20195;-57
2023/02/20 07:52:57;;;;;;;1.88;1.60;;;20.00;80.30;;;;;;5042953;28;20208;-55
2023/02/20 07:55:24;;;;;;;2.47;1.38;;;20.10;80.50;;;;;;5043477;28;20558;-51
2023/02/20 07:57:56;;;;;;;2.58;1.80;;;20.10;80.40;;;;;;5049466;28;20206;-62
2023/02/20 08:00:25;;;;;;;2.20;1.83;;;20.10;80.40;;;;;;5042878;28;20732;-56
2023/02/20 08:02:52;;;;;;;2.22;2.03;;;20.10;80.40;;;;;;5040859;28;20199;-59
2023/02/20 08:05:20;;;;;;;2.65;1.65;;;20.10;80.40;;;;;;5047823;28;20241;-52
2023/02/20 08:07:47;;;;;;;2.90;1.80;;;20.10;80.40;;;;;;5048573;28;20195;-53
2023/02/20 08:10:15;;;;;;;2.30;1.60;;;20.10;80.40;;;;;;5043266;28;20567;-55
2023/02/20 08:12:42;;;;;;;1.75;1.65;;;20.10;80.40;;;;;;5046422;28;20191;-61
2023/02/20 08:15:10;;;;;;;1.98;1.77;;;20.10;80.40;;;;;;5044605;28;20424;-57
2023/02/20 08:17:37;;;;;;;2.00;1.65;;;20.10;80.40;;;;;;5040529;28;20247;-57
2023/02/20 08:20:05;;;;;;;1.77;1.60;;;20.10;80.30;;;;;;5046058;28;20206;-56
2023/02/20 08:22:33;;;;;;;2.05;1.77;;;20.10;80.40;;;;;;5044684;28;20317;-56
2023/02/20 08:25:00;;;;;;;2.75;1.80;;;20.10;80.40;;;;;;5046017;28;20192;-58
2023/02/20 08:27:27;;;;;;;1.92;1.60;;;20.10;80.40;;;;;;5050885;28;20217;-58
2023/02/20 08:29:53;;;;;;;2.65;1.48;;;20.10;80.40;;;;;;5045926;28;20219;-55
2023/02/20 08:32:20;;;;;;;2.13;1.45;;;20.10;81.30;;;;;;5045350;28;20208;-56
2023/02/20 08:34:47;;;;;;;1.50;1.40;;;20.10;80.60;;;;;;5044574;28;20188;-57
2023/02/20 08:37:14;;;;;;;2.22;2.03;;;20.10;80.60;;;;;;5040558;28;20670;-56
2023/02/20 08:39:42;;;;;;;3.25;2.20;;;20.10;80.60;;;;;;5040380;28;20219;-57
2023/02/20 08:42:08;;;;;;;2.20;2.00;;;20.10;80.70;;;;;;5041085;28;21302;-54
2023/02/20 08:44:35;;;;;;;1.58;1.40;;;20.10;80.70;;;;;;5042018;28;20207;-60
2023/02/20 08:47:02;;;;;;;3.22;2.58;;;20.10;80.70;;;;;;5045134;28;20227;-59
2023/02/20 08:49:29;;;;;;;2.45;1.60;;;20.10;80.70;;;;;;5039994;28;20203;-57
2023/02/20 08:51:57;;;;;;;1.92;1.60;;;20.10;80.70;;;;;;5040796;28;20215;-59
2023/02/20 08:54:23;;;;;;;2.20;1.90;;;20.10;80.70;;;;;;5044024;28;20187;-57
2023/02/20 08:56:51;;;;;;;2.17;1.98;;;20.10;80.60;;;;;;5039493;28;20207;-58
2023/02/20 08:59:18;;;;;;;2.30;1.80;;;20.10;80.70;;;;;;5049429;28;20211;-56
2023/02/20 09:01:45;;;;;;;2.13;1.63;;;20.10;80.60;;;;;;5045077;28;20199;-54
2023/02/20 09:04:11;;;;;;;2.75;1.80;;;20.10;80.70;;;;;;5041441;28;20191;-59
2023/02/20 09:06:38;;;;;;;2.13;1.65;;;20.10;80.60;;;;;;5047444;28;20208;-56
2023/02/20 09:09:05;;;;;;;1.80;1.70;;;20.10;80.60;;;;;;5047201;28;20204;-56
2023/02/20 09:11:32;;;;;;;2.38;1.65;;;20.10;80.60;;;;;;5045422;28;20719;-58
2023/02/20 09:14:00;;;;;;;1.50;1.40;;;20.10;80.60;;;;;;5046182;28;20686;-56
2023/02/20 09:16:27;;;;;;;1.85;1.70;;;20.10;80.70;;;;;;5034443;28;20192;-56
2023/02/20 09:18:54;;;;;;;2.15;1.70;;;20.10;80.90;;;;;;5042193;28;20202;-59
2023/02/20 09:21:21;;;;;;;1.98;1.77;;;20.10;81.00;;;;;;5049660;28;20219;-56
2023/02/20 09:23:48;;;;;;;3.17;1.98;;;20.10;81.10;;;;;;5047877;28;20196;-57
2023/02/20 09:26:15;;;;;;;3.15;1.80;;;20.10;81.20;;;;;;5043331;28;20298;-55
2023/02/20 09:28:41;;;;;;;1.90;1.70;;;20.10;81.20;;;;;;5048854;28;20187;-60
2023/02/20 09:31:10;;;;;;;1.85;1.70;;;20.10;81.40;;;;;;5040270;28;20198;-59
2023/02/20 09:33:36;;;;;;;2.30;1.60;;;20.10;81.30;;;;;;5043921;28;20191;-57
2023/02/20 09:36:04;;;;;;;2.03;1.85;;;20.10;81.30;;;;;;5048695;28;20203;-58
2023/02/20 09:38:30;;;;;;;1.67;1.50;;;20.10;81.40;;;;;;5041646;28;20223;-56
2023/02/20 09:40:59;;;;;;;2.05;1.80;;;20.10;81.30;;;;;;5041581;28;20199;-57
2023/02/20 09:43:43;;;;;;;3.05;1.80;;;20.20;81.50;;;;;;5036760;28;20211;-61
2023/02/20 09:46:14;;;;;;;3.95;1.80;;;20.20;81.50;;;;;;5041264;28;20219;-63
2023/02/20 09:48:53;;;;;;;3.08;1.70;;;20.20;81.70;;;;;;5039252;28;20215;-55
2023/02/20 09:51:22;;;;;;;2.92;1.77;;;20.20;81.70;;;;;;5039074;28;20215;-59
2023/02/20 09:53:55;;;;;;;2.22;1.73;;;20.20;81.80;;;;;;5039817;28;20191;-63
2023/02/20 09:56:26;;;;;;;2.47;1.80;;;20.20;81.90;;;;;;5034221;28;20203;-58
2023/02/20 09:58:59;;;;;;;5.40;1.70;;;20.20;82.00;;;;;;5043436;28;20666;-67
2023/02/20 10:01:29;;;;;;;2.53;1.60;;;20.20;82.00;;;;;;5038077;28;20207;-62
2023/02/20 10:03:57;;;;;;;3.15;1.60;;;20.20;82.00;;;;;;5042846;28;20210;-63
2023/02/20 10:06:26;;;;;;;1.90;1.70;;;20.20;82.00;;;;;;5043845;28;20223;-58
2023/02/20 10:08:54;;;;;;;2.95;2.75;;;20.20;82.00;;;;;;5043949;28;20203;-61
2023/02/20 10:11:36;;;;;;;3.45;2.00;;;20.20;82.00;;;;;;5043416;28;20199;-61
2023/02/20 10:14:26;;;;;;;1.85;1.50;;;20.20;82.30;;;;;;5043755;28;20200;-60
2023/02/20 10:17:02;;;;;;;4.72;1.50;;;20.20;82.00;;;;;;5042548;28;20205;-62
2023/02/20 10:19:36;;;;;;;2.50;1.60;;;20.20;82.00;;;;;;5044800;28;20195;-58
2023/02/20 10:22:10;;;;;;;2.35;1.58;;;20.20;82.00;;;;;;5044921;28;20226;-58
2023/02/20 10:24:47;;;;;;;3.45;2.05;;;20.20;82.00;;;;;;5044202;28;20195;-59
2023/02/20 10:27:25;;;;;;;3.13;1.92;;;20.20;82.00;;;;;;5049347;28;20214;-56
2023/02/20 10:29:53;;;;;;;1.65;1.45;;;20.10;81.80;;;;;;5044977;28;20192;-58
2023/02/20 10:32:27;;;;;;;1.90;1.67;;;20.20;82.00;;;;;;5044924;28;20618;-62
2023/02/20 10:35:00;;;;;;;3.20;1.65;;;20.20;82.80;;;;;;5040250;28;20192;-59
2023/02/20 10:37:34;;;;;;;1.75;1.50;;;20.10;82.70;;;;;;5048689;28;20195;-59
2023/02/20 10:40:08;;;;;;;2.10;1.48;;;20.20;82.00;;;;;;5044279;28;20193;-60
2023/02/20 10:42:40;;;;;;;2.47;1.50;;;20.20;82.00;;;;;;5042495;28;20217;-58
2023/02/20 10:45:13;;;;;;;2.20;1.70;;;20.10;81.90;;;;;;5042248;28;20199;-60
2023/02/20 10:47:47;;;;;;;2.05;1.58;;;20.10;81.90;;;;;;5041001;28;20227;-62
2023/02/20 10:50:20;;;;;;;6.97;4.88;;;20.10;81.90;;;;;;5040492;28;20206;-64
2023/02/20 10:52:52;;;;;;;6.40;4.47;;;20.10;80.70;;;;;;5034424;28;20671;-63
2023/02/20 10:55:26;;;;;;;2.47;2.20;;;19.90;79.40;;;;;;5040887;28;20200;-62
2023/02/20 10:57:59;;;;;;;3.67;2.03;;;20.00;80.00;;;;;;5037398;28;20211;-65
2023/02/20 11:00:33;;;;;;;3.40;2.75;;;20.10;80.30;;;;;;5044831;28;20452;-65
2023/02/20 11:03:07;;;;;;;2.88;2.33;;;20.10;80.30;;;;;;5042863;28;20612;-64
2023/02/20 11:05:41;;;;;;;5.78;2.70;;;20.20;80.50;;;;;;5042966;28;20204;-66
2023/02/20 11:08:07;;;;;;;3.90;2.45;;;20.20;80.90;;;;;;5046605;28;20192;-64
2023/02/20 11:10:34;;;;;;;2.40;1.90;;;20.30;81.70;;;;;;5044216;28;20200;-63
2023/02/20 11:13:02;;;;;;;2.45;2.25;;;20.40;81.10;;;;;;5040703;28;20675;-68
2023/02/20 11:15:32;;;;;;;4.57;3.28;;;20.40;81.70;;;;;;5042999;28;20278;-65
2023/02/20 11:18:00;;;;;;;12.10;2.40;;;20.40;81.70;;;;;;5043841;28;20196;-67
2023/02/20 11:20:45;;;;;;;3.55;2.30;;;20.40;81.80;;;;;;5043945;28;20496;-65
2023/02/20 11:23:37;;;;;;;2.92;2.58;;;20.40;81.90;;;;;;5040973;28;20238;-63
2023/02/20 11:26:27;;;;;;;2.13;1.73;;;20.40;81.90;;;;;;5046510;28;20219;-61
2023/02/20 11:29:02;;;;;;;2.13;1.90;;;20.50;82.20;;;;;;5044065;28;20641;-61
2023/02/20 11:31:29;;;;;;;2.92;2.55;;;20.50;82.30;;;;;;5044102;28;20525;-68
2023/02/20 11:33:57;;;;;;;3.67;2.20;;;20.50;82.40;;;;;;5045266;28;21919;-69
2023/02/20 11:36:26;;;;;;;4.03;1.90;;;20.50;82.40;;;;;;5039727;28;20207;-69
2023/02/20 11:39:02;;;;;;;2.45;1.95;;;20.50;82.40;;;;;;5043960;28;20195;-68
2023/02/20 11:41:35;;;;;;;5.90;1.80;;;20.50;82.60;;;;;;5045455;28;20207;-68
2023/02/20 11:44:28;;;;;;;3.38;1.90;;;20.50;82.60;;;;;;5035543;28;20236;-65
2023/02/20 11:47:20;;;;;;;3.37;1.70;;;20.60;83.50;;;;;;5042026;28;20219;-65
2023/02/20 11:49:48;;;;;;;2.45;1.77;;;20.60;82.80;;;;;;5032881;28;20462;-63
2023/02/20 11:52:21;;;;;;;2.10;1.80;;;20.60;82.80;;;;;;5038591;28;20195;-66
2023/02/20 11:54:49;;;;;;;2.73;1.70;;;20.60;82.90;;;;;;5040269;28;20702;-65
2023/02/20 11:57:25;;;;;;;13.37;3.20;;;20.60;83.00;;;;;;5039909;28;20888;-68
2023/02/20 12:00:07;;;;;;;2.40;1.90;;;20.60;82.90;;;;;;5045209;28;20458;-67
2023/02/20 12:02:34;;;;;;;6.13;2.10;;;20.60;82.90;;;;;;5041330;28;20454;-66
2023/02/20 12:05:11;;;;;;;2.43;1.67;;;20.60;83.00;;;;;;5044373;28;20454;-66
2023/02/20 12:07:43;;;;;;;2.83;1.60;;;20.60;83.00;;;;;;5040644;28;20976;-68
2023/02/20 12:10:42;;;;;;;3.67;2.40;;;20.60;83.00;;;;;;5041118;28;20976;-66
2023/02/20 12:13:13;;;;;;;4.93;2.53;;;20.60;83.00;;;;;;5041009;28;20461;-63
2023/02/20 12:15:40;;;;;;;4.65;2.20;;;20.60;83.80;;;;;;5041920;28;20450;-64
2023/02/20 12:18:30;;;;;;;3.10;2.47;;;20.60;83.10;;;;;;5041339;28;20199;-65
2023/02/20 12:21:11;;;;;;;3.50;2.60;;;20.60;83.00;;;;;;5043634;28;20473;-64
2023/02/20 12:23:49;;;;;;;2.90;2.15;;;20.70;83.00;;;;;;5046279;28;20463;-64
2023/02/20 12:26:31;;;;;;;2.40;2.20;;;20.70;83.00;;;;;;5043544;28;20685;-67
2023/02/20 12:29:10;;;;;;;1.70;1.60;;;20.70;82.90;;;;;;5040896;28;20845;-65
2023/02/20 12:31:48;;;;;;;3.87;2.73;;;20.70;82.90;;;;;;5039698;28;20195;-63
2023/02/20 12:34:27;;;;;;;1.73;1.57;;;20.70;83.00;;;;;;5038126;28;20465;-60
2023/02/20 12:37:03;;;;;;;2.07;1.97;;;20.70;83.10;;;;;;5040949;28;20467;-62
2023/02/20 12:39:37;;;;;;;2.90;1.93;;;20.70;83.20;;;;;;5041679;28;20454;-66
2023/02/20 12:42:17;;;;;;;2.77;1.97;;;20.70;83.20;;;;;;5039070;28;20468;-66
2023/02/20 12:45:22;;;;;;;5.50;2.40;;;20.70;83.30;;;;;;5043742;28;20473;-64
2023/02/20 12:48:02;;;;;;;3.97;2.33;;;20.70;83.30;;;;;;5038311;28;20485;-64
2023/02/20 12:50:40;;;;;;;2.27;2.00;;;20.70;83.20;;;;;;5041898;28;20460;-64
2023/02/20 12:53:24;;;;;;;1.90;1.63;;;20.80;83.30;;;;;;5043082;28;20458;-63
2023/02/20 12:55:58;;;;;;;2.23;2.00;;;20.80;83.30;;;;;;5037189;28;20515;-62
2023/02/20 12:58:37;;;;;;;3.80;1.77;;;20.80;83.20;;;;;;5044269;28;20463;-67
2023/02/20 13:01:06;;;;;;;2.23;2.03;;;20.80;83.20;;;;;;5042214;28;20455;-65
2023/02/20 13:03:43;;;;;;;2.63;2.37;;;20.80;83.20;;;;;;5045954;28;20459;-67
2023/02/20 13:06:13;;;;;;;3.00;2.50;;;20.80;83.20;;;;;;5045103;28;20825;-67
2023/02/20 13:08:52;;;;;;;2.60;2.40;;;20.80;83.20;;;;;;5039636;28;20449;-63
2023/02/20 13:11:23;;;;;;;2.30;1.80;;;20.80;83.10;;;;;;5045209;28;20468;-65
2023/02/20 13:14:03;;;;;;;6.60;4.53;;;20.80;83.10;;;;;;5042890;28;20535;-65
2023/02/20 13:16:37;;;;;;;5.27;3.23;;;20.80;81.90;;;;;;5039513;28;20461;-64
2023/02/20 13:19:11;;;;;;;3.00;2.70;;;20.70;81.90;;;;;;5047296;28;20840;-66
2023/02/20 13:21:38;;;;;;;3.27;2.70;;;20.70;82.00;;;;;;5052082;28;20463;-62